sensor_id;sensor_type;location;lat;lon;timestamp;P1;durP1;ratioP1;P2;durP2;ratioP2
52564;SDS011;38460;53.106;7.004;2023-09-19T00:02:02;4.70;;;1.70;;
52564;SDS011;38460;53.106;7.004;2023-09-19T00:04:32;5.93;;;1.98;;
52564;SDS011;38460;53.106;7.004;2023-09-19T00:06:58;5.43;;;1.60;;
52564;SDS011;38460;53.106;7.004;2023-09-19T00:09:24;5.63;;;2.08;;
52564;SDS011;38460;53.106;7.004;2023-09-19T00:11:53;7.80;;;2.10;;
52564;SDS011;38460;53.106;7.004;2023-09-19T00:14:19;5.65;;;1.73;;
52564;SDS011;38460;53.106;7.004;2023-09-19T00:16:44;7.05;;;1.60;;
52564;SDS011;38460;53.106;7.004;2023-09-19T00:19:11;4.03;;;1.40;;
52564;SDS011;38460;53.106;7.004;2023-09-19T00:21:38;6.32;;;1.40;;
52564;SDS011;38460;53.106;7.004;2023-09-19T00:24:06;4.15;;;1.77;;
52564;SDS011;38460;53.106;7.004;2023-09-19T00:26:32;10.90;;;1.88;;
52564;SDS011;38460;53.106;7.004;2023-09-19T00:28:59;5.70;;;1.80;;
52564;SDS011;38460;53.106;7.004;2023-09-19T00:31:33;4.72;;;1.63;;
52564;SDS011;38460;53.106;7.004;2023-09-19T00:33:59;3.95;;;1.60;;
52564;SDS011;38460;53.106;7.004;2023-09-19T00:36:34;4.85;;;2.20;;
52564;SDS011;38460;53.106;7.004;2023-09-19T00:39:03;5.97;;;1.90;;
52564;SDS011;38460;53.106;7.004;2023-09-19T00:41:31;6.78;;;2.00;;
52564;SDS011;38460;53.106;7.004;2023-09-19T00:44:01;6.07;;;1.77;;
52564;SDS011;38460;53.106;7.004;2023-09-19T00:46:28;6.22;;;1.65;;
52564;SDS011;38460;53.106;7.004;2023-09-19T00:48:55;8.18;;;1.63;;
52564;SDS011;38460;53.106;7.004;2023-09-19T00:51:22;4.78;;;1.55;;
52564;SDS011;38460;53.106;7.004;2023-09-19T00:53:51;6.47;;;2.25;;
52564;SDS011;38460;53.106;7.004;2023-09-19T00:56:22;6.35;;;1.80;;
52564;SDS011;38460;53.106;7.004;2023-09-19T00:58:55;4.78;;;1.60;;
52564;SDS011;38460;53.106;7.004;2023-09-19T01:01:21;4.90;;;1.75;;
52564;SDS011;38460;53.106;7.004;2023-09-19T01:03:48;8.55;;;2.35;;
52564;SDS011;38460;53.106;7.004;2023-09-19T01:06:14;4.35;;;1.77;;
52564;SDS011;38460;53.106;7.004;2023-09-19T01:08:41;4.75;;;2.13;;
52564;SDS011;38460;53.106;7.004;2023-09-19T01:11:25;4.35;;;2.00;;
52564;SDS011;38460;53.106;7.004;2023-09-19T01:16:59;9.68;;;2.58;;
52564;SDS011;38460;53.106;7.004;2023-09-19T01:28:07;4.00;;;1.60;;
52564;SDS011;38460;53.106;7.004;2023-09-19T01:30:58;6.13;;;2.45;;
52564;SDS011;38460;53.106;7.004;2023-09-19T01:33:28;5.45;;;2.10;;
52564;SDS011;38460;53.106;7.004;2023-09-19T01:36:16;7.65;;;2.58;;
52564;SDS011;38460;53.106;7.004;2023-09-19T01:38:42;7.05;;;3.05;;
52564;SDS011;38460;53.106;7.004;2023-09-19T01:41:10;7.28;;;3.63;;
52564;SDS011;38460;53.106;7.004;2023-09-19T01:43:41;8.25;;;4.15;;
52564;SDS011;38460;53.106;7.004;2023-09-19T01:49:13;7.63;;;2.50;;
52564;SDS011;38460;53.106;7.004;2023-09-19T01:54:26;5.82;;;1.90;;
52564;SDS011;38460;53.106;7.004;2023-09-19T01:57:40;8.25;;;2.20;;
52564;SDS011;38460;53.106;7.004;2023-09-19T01:59:58;4.05;;;1.65;;
52564;SDS011;38460;53.106;7.004;2023-09-19T02:02:35;7.05;;;2.00;;
52564;SDS011;38460;53.106;7.004;2023-09-19T02:05:03;6.95;;;2.30;;
52564;SDS011;38460;53.106;7.004;2023-09-19T02:07:29;4.60;;;2.15;;
52564;SDS011;38460;53.106;7.004;2023-09-19T02:09:59;8.55;;;2.17;;
52564;SDS011;38460;53.106;7.004;2023-09-19T02:12:31;5.85;;;2.10;;
52564;SDS011;38460;53.106;7.004;2023-09-19T02:15:00;7.55;;;2.10;;
52564;SDS011;38460;53.106;7.004;2023-09-19T02:17:26;7.85;;;2.22;;
52564;SDS011;38460;53.106;7.004;2023-09-19T02:19:55;4.18;;;1.95;;
52564;SDS011;38460;53.106;7.004;2023-09-19T02:22:21;8.27;;;2.25;;
52564;SDS011;38460;53.106;7.004;2023-09-19T02:24:49;7.78;;;2.80;;
52564;SDS011;38460;53.106;7.004;2023-09-19T02:27:16;6.93;;;4.03;;
52564;SDS011;38460;53.106;7.004;2023-09-19T02:29:45;8.82;;;3.58;;
52564;SDS011;38460;53.106;7.004;2023-09-19T02:32:11;10.75;;;3.90;;
52564;SDS011;38460;53.106;7.004;2023-09-19T02:34:36;9.70;;;3.25;;
52564;SDS011;38460;53.106;7.004;2023-09-19T02:37:04;7.88;;;3.47;;
52564;SDS011;38460;53.106;7.004;2023-09-19T02:39:30;5.60;;;3.17;;
52564;SDS011;38460;53.106;7.004;2023-09-19T02:41:57;8.55;;;4.15;;
52564;SDS011;38460;53.106;7.004;2023-09-19T02:44:22;8.10;;;4.28;;
52564;SDS011;38460;53.106;7.004;2023-09-19T02:46:49;10.00;;;4.28;;
52564;SDS011;38460;53.106;7.004;2023-09-19T02:49:15;8.85;;;5.20;;
52564;SDS011;38460;53.106;7.004;2023-09-19T02:51:42;8.50;;;4.93;;
52564;SDS011;38460;53.106;7.004;2023-09-19T02:54:09;8.70;;;4.55;;
52564;SDS011;38460;53.106;7.004;2023-09-19T02:56:35;9.40;;;4.88;;
52564;SDS011;38460;53.106;7.004;2023-09-19T02:59:02;10.20;;;4.07;;
52564;SDS011;38460;53.106;7.004;2023-09-19T03:01:28;8.23;;;3.20;;
52564;SDS011;38460;53.106;7.004;2023-09-19T03:03:54;5.85;;;3.22;;
52564;SDS011;38460;53.106;7.004;2023-09-19T03:06:20;8.27;;;3.20;;
52564;SDS011;38460;53.106;7.004;2023-09-19T03:08:46;11.20;;;3.95;;
52564;SDS011;38460;53.106;7.004;2023-09-19T03:11:14;10.20;;;3.47;;
52564;SDS011;38460;53.106;7.004;2023-09-19T03:13:43;10.25;;;3.75;;
52564;SDS011;38460;53.106;7.004;2023-09-19T03:16:09;9.40;;;4.13;;
52564;SDS011;38460;53.106;7.004;2023-09-19T03:18:35;8.23;;;3.97;;
52564;SDS011;38460;53.106;7.004;2023-09-19T03:21:01;6.50;;;3.20;;
52564;SDS011;38460;53.106;7.004;2023-09-19T03:23:27;11.57;;;3.55;;
52564;SDS011;38460;53.106;7.004;2023-09-19T03:25:54;10.25;;;3.40;;
52564;SDS011;38460;53.106;7.004;2023-09-19T03:28:21;7.93;;;3.65;;
52564;SDS011;38460;53.106;7.004;2023-09-19T03:31:03;18.65;;;3.65;;
52564;SDS011;38460;53.106;7.004;2023-09-19T03:33:30;6.05;;;3.35;;
52564;SDS011;38460;53.106;7.004;2023-09-19T03:35:59;6.75;;;2.60;;
52564;SDS011;38460;53.106;7.004;2023-09-19T03:38:26;8.75;;;2.70;;
52564;SDS011;38460;53.106;7.004;2023-09-19T03:40:53;8.93;;;2.63;;
52564;SDS011;38460;53.106;7.004;2023-09-19T03:43:19;7.80;;;2.35;;
52564;SDS011;38460;53.106;7.004;2023-09-19T03:45:45;9.05;;;4.38;;
52564;SDS011;38460;53.106;7.004;2023-09-19T03:48:12;9.27;;;5.10;;
52564;SDS011;38460;53.106;7.004;2023-09-19T03:50:38;10.23;;;3.72;;
52564;SDS011;38460;53.106;7.004;2023-09-19T03:53:04;11.68;;;4.57;;
52564;SDS011;38460;53.106;7.004;2023-09-19T03:55:32;8.27;;;3.72;;
52564;SDS011;38460;53.106;7.004;2023-09-19T03:58:01;8.13;;;4.80;;
52564;SDS011;38460;53.106;7.004;2023-09-19T04:00:27;6.85;;;3.33;;
52564;SDS011;38460;53.106;7.004;2023-09-19T04:02:54;7.45;;;3.25;;
52564;SDS011;38460;53.106;7.004;2023-09-19T04:05:21;8.65;;;3.42;;
52564;SDS011;38460;53.106;7.004;2023-09-19T04:07:47;6.03;;;3.70;;
52564;SDS011;38460;53.106;7.004;2023-09-19T04:10:13;8.55;;;3.70;;
52564;SDS011;38460;53.106;7.004;2023-09-19T04:12:40;12.73;;;3.80;;
52564;SDS011;38460;53.106;7.004;2023-09-19T04:15:06;8.35;;;3.28;;
52564;SDS011;38460;53.106;7.004;2023-09-19T04:17:33;10.95;;;3.65;;
52564;SDS011;38460;53.106;7.004;2023-09-19T04:19:59;9.75;;;3.70;;
52564;SDS011;38460;53.106;7.004;2023-09-19T04:22:25;8.50;;;3.95;;
52564;SDS011;38460;53.106;7.004;2023-09-19T04:24:51;9.98;;;3.75;;
52564;SDS011;38460;53.106;7.004;2023-09-19T04:27:16;10.43;;;3.85;;
52564;SDS011;38460;53.106;7.004;2023-09-19T04:29:43;6.60;;;3.05;;
52564;SDS011;38460;53.106;7.004;2023-09-19T04:32:09;8.52;;;3.40;;
52564;SDS011;38460;53.106;7.004;2023-09-19T04:34:35;5.63;;;3.45;;
52564;SDS011;38460;53.106;7.004;2023-09-19T04:37:03;8.13;;;4.10;;
52564;SDS011;38460;53.106;7.004;2023-09-19T04:39:29;11.50;;;3.92;;
52564;SDS011;38460;53.106;7.004;2023-09-19T04:41:55;8.80;;;3.90;;
52564;SDS011;38460;53.106;7.004;2023-09-19T04:44:20;7.60;;;3.83;;
52564;SDS011;38460;53.106;7.004;2023-09-19T04:46:46;7.78;;;3.08;;
52564;SDS011;38460;53.106;7.004;2023-09-19T04:49:12;7.30;;;3.10;;
52564;SDS011;38460;53.106;7.004;2023-09-19T04:51:38;7.68;;;2.65;;
52564;SDS011;38460;53.106;7.004;2023-09-19T04:54:05;6.18;;;2.63;;
52564;SDS011;38460;53.106;7.004;2023-09-19T04:56:31;6.88;;;3.10;;
52564;SDS011;38460;53.106;7.004;2023-09-19T04:58:58;8.80;;;3.92;;
52564;SDS011;38460;53.106;7.004;2023-09-19T05:01:25;8.93;;;2.60;;
52564;SDS011;38460;53.106;7.004;2023-09-19T05:03:51;5.57;;;2.67;;
52564;SDS011;38460;53.106;7.004;2023-09-19T05:06:20;7.00;;;2.30;;
52564;SDS011;38460;53.106;7.004;2023-09-19T05:08:50;6.38;;;2.10;;
52564;SDS011;38460;53.106;7.004;2023-09-19T05:11:19;7.68;;;2.55;;
52564;SDS011;38460;53.106;7.004;2023-09-19T05:13:47;11.02;;;2.60;;
52564;SDS011;38460;53.106;7.004;2023-09-19T05:16:15;5.18;;;2.72;;
52564;SDS011;38460;53.106;7.004;2023-09-19T05:18:41;8.95;;;2.63;;
52564;SDS011;38460;53.106;7.004;2023-09-19T05:21:07;5.72;;;2.45;;
52564;SDS011;38460;53.106;7.004;2023-09-19T05:23:33;7.65;;;2.40;;
52564;SDS011;38460;53.106;7.004;2023-09-19T05:25:59;12.48;;;2.90;;
52564;SDS011;38460;53.106;7.004;2023-09-19T05:28:25;6.82;;;2.75;;
52564;SDS011;38460;53.106;7.004;2023-09-19T05:30:52;9.27;;;2.38;;
52564;SDS011;38460;53.106;7.004;2023-09-19T05:33:18;6.72;;;2.60;;
52564;SDS011;38460;53.106;7.004;2023-09-19T05:35:45;10.52;;;3.05;;
52564;SDS011;38460;53.106;7.004;2023-09-19T05:38:12;6.60;;;3.50;;
52564;SDS011;38460;53.106;7.004;2023-09-19T05:40:39;7.80;;;2.60;;
52564;SDS011;38460;53.106;7.004;2023-09-19T05:43:08;7.90;;;3.10;;
52564;SDS011;38460;53.106;7.004;2023-09-19T05:45:34;7.50;;;2.58;;
52564;SDS011;38460;53.106;7.004;2023-09-19T05:48:08;8.48;;;4.32;;
52564;SDS011;38460;53.106;7.004;2023-09-19T05:50:38;7.68;;;3.10;;
52564;SDS011;38460;53.106;7.004;2023-09-19T05:53:04;6.35;;;3.05;;
52564;SDS011;38460;53.106;7.004;2023-09-19T05:55:31;7.03;;;2.88;;
52564;SDS011;38460;53.106;7.004;2023-09-19T05:57:57;10.57;;;3.20;;
52564;SDS011;38460;53.106;7.004;2023-09-19T06:00:24;7.13;;;2.75;;
52564;SDS011;38460;53.106;7.004;2023-09-19T06:02:56;10.77;;;3.40;;
52564;SDS011;38460;53.106;7.004;2023-09-19T06:05:23;11.88;;;3.40;;
52564;SDS011;38460;53.106;7.004;2023-09-19T06:07:52;8.27;;;3.45;;
52564;SDS011;38460;53.106;7.004;2023-09-19T06:10:18;8.55;;;3.67;;
52564;SDS011;38460;53.106;7.004;2023-09-19T06:12:46;13.98;;;3.75;;
52564;SDS011;38460;53.106;7.004;2023-09-19T06:15:13;6.97;;;3.70;;
52564;SDS011;38460;53.106;7.004;2023-09-19T06:17:48;11.10;;;5.63;;
52564;SDS011;38460;53.106;7.004;2023-09-19T06:20:15;8.80;;;4.07;;
52564;SDS011;38460;53.106;7.004;2023-09-19T06:22:42;10.07;;;4.55;;
52564;SDS011;38460;53.106;7.004;2023-09-19T06:25:12;8.70;;;3.67;;
52564;SDS011;38460;53.106;7.004;2023-09-19T06:27:44;8.32;;;3.58;;
52564;SDS011;38460;53.106;7.004;2023-09-19T06:30:10;10.15;;;3.75;;
52564;SDS011;38460;53.106;7.004;2023-09-19T06:32:36;10.13;;;3.35;;
52564;SDS011;38460;53.106;7.004;2023-09-19T06:35:02;12.18;;;3.53;;
52564;SDS011;38460;53.106;7.004;2023-09-19T06:37:30;15.38;;;3.40;;
52564;SDS011;38460;53.106;7.004;2023-09-19T06:39:55;10.60;;;3.45;;
52564;SDS011;38460;53.106;7.004;2023-09-19T06:42:22;8.35;;;2.30;;
52564;SDS011;38460;53.106;7.004;2023-09-19T06:44:48;8.70;;;2.42;;
52564;SDS011;38460;53.106;7.004;2023-09-19T06:47:14;8.57;;;2.63;;
52564;SDS011;38460;53.106;7.004;2023-09-19T06:49:41;9.20;;;2.92;;
52564;SDS011;38460;53.106;7.004;2023-09-19T06:52:09;8.18;;;2.83;;
52564;SDS011;38460;53.106;7.004;2023-09-19T06:54:35;8.00;;;3.22;;
52564;SDS011;38460;53.106;7.004;2023-09-19T06:57:01;5.70;;;2.78;;
52564;SDS011;38460;53.106;7.004;2023-09-19T06:59:27;9.60;;;2.97;;
52564;SDS011;38460;53.106;7.004;2023-09-19T07:01:52;8.80;;;2.55;;
52564;SDS011;38460;53.106;7.004;2023-09-19T07:04:18;7.35;;;2.78;;
52564;SDS011;38460;53.106;7.004;2023-09-19T07:06:50;7.25;;;2.08;;
52564;SDS011;38460;53.106;7.004;2023-09-19T07:09:16;7.43;;;2.53;;
52564;SDS011;38460;53.106;7.004;2023-09-19T07:11:42;7.38;;;2.53;;
52564;SDS011;38460;53.106;7.004;2023-09-19T07:14:08;7.43;;;2.90;;
52564;SDS011;38460;53.106;7.004;2023-09-19T07:16:37;13.55;;;3.83;;
52564;SDS011;38460;53.106;7.004;2023-09-19T07:19:04;6.38;;;3.17;;
52564;SDS011;38460;53.106;7.004;2023-09-19T07:21:30;7.93;;;2.38;;
52564;SDS011;38460;53.106;7.004;2023-09-19T07:23:59;8.02;;;2.75;;
52564;SDS011;38460;53.106;7.004;2023-09-19T07:26:26;5.93;;;2.63;;
52564;SDS011;38460;53.106;7.004;2023-09-19T07:28:53;10.45;;;2.88;;
52564;SDS011;38460;53.106;7.004;2023-09-19T07:31:19;10.18;;;2.75;;
52564;SDS011;38460;53.106;7.004;2023-09-19T07:33:47;8.75;;;2.67;;
52564;SDS011;38460;53.106;7.004;2023-09-19T07:36:13;8.85;;;2.47;;
52564;SDS011;38460;53.106;7.004;2023-09-19T07:38:40;8.02;;;2.80;;
52564;SDS011;38460;53.106;7.004;2023-09-19T07:41:07;8.93;;;3.03;;
52564;SDS011;38460;53.106;7.004;2023-09-19T07:43:34;8.57;;;3.08;;
52564;SDS011;38460;53.106;7.004;2023-09-19T07:46:04;17.10;;;4.00;;
52564;SDS011;38460;53.106;7.004;2023-09-19T07:48:32;7.70;;;2.80;;
52564;SDS011;38460;53.106;7.004;2023-09-19T07:51:03;6.80;;;2.35;;
52564;SDS011;38460;53.106;7.004;2023-09-19T07:53:29;6.95;;;2.55;;
52564;SDS011;38460;53.106;7.004;2023-09-19T07:56:05;11.40;;;2.75;;
52564;SDS011;38460;53.106;7.004;2023-09-19T07:58:31;8.55;;;2.78;;
52564;SDS011;38460;53.106;7.004;2023-09-19T08:01:08;8.88;;;2.97;;
52564;SDS011;38460;53.106;7.004;2023-09-19T08:03:35;9.70;;;4.28;;
52564;SDS011;38460;53.106;7.004;2023-09-19T08:06:08;8.00;;;2.38;;
52564;SDS011;38460;53.106;7.004;2023-09-19T08:08:35;6.90;;;2.80;;
52564;SDS011;38460;53.106;7.004;2023-09-19T08:11:04;9.23;;;2.35;;
52564;SDS011;38460;53.106;7.004;2023-09-19T08:13:46;6.43;;;2.10;;
52564;SDS011;38460;53.106;7.004;2023-09-19T08:16:14;9.90;;;4.30;;
52564;SDS011;38460;53.106;7.004;2023-09-19T08:18:40;8.15;;;2.58;;
52564;SDS011;38460;53.106;7.004;2023-09-19T08:21:07;7.85;;;2.80;;
52564;SDS011;38460;53.106;7.004;2023-09-19T08:23:39;8.98;;;2.75;;
52564;SDS011;38460;53.106;7.004;2023-09-19T08:26:05;7.75;;;3.22;;
52564;SDS011;38460;53.106;7.004;2023-09-19T08:28:34;8.13;;;2.33;;
52564;SDS011;38460;53.106;7.004;2023-09-19T08:31:04;7.30;;;2.42;;
52564;SDS011;38460;53.106;7.004;2023-09-19T08:33:34;10.82;;;2.70;;
52564;SDS011;38460;53.106;7.004;2023-09-19T08:36:04;8.45;;;3.20;;
52564;SDS011;38460;53.106;7.004;2023-09-19T08:38:33;6.68;;;2.60;;
52564;SDS011;38460;53.106;7.004;2023-09-19T08:41:00;7.43;;;2.50;;
52564;SDS011;38460;53.106;7.004;2023-09-19T08:43:30;9.75;;;2.83;;
52564;SDS011;38460;53.106;7.004;2023-09-19T08:48:31;15.63;;;3.55;;
52564;SDS011;38460;53.106;7.004;2023-09-19T08:51:07;5.82;;;2.83;;
52564;SDS011;38460;53.106;7.004;2023-09-19T08:53:58;10.82;;;2.33;;
52564;SDS011;38460;53.106;7.004;2023-09-19T08:56:35;5.65;;;2.20;;
52564;SDS011;38460;53.106;7.004;2023-09-19T08:59:05;12.70;;;2.95;;
52564;SDS011;38460;53.106;7.004;2023-09-19T09:01:34;11.57;;;3.28;;
52564;SDS011;38460;53.106;7.004;2023-09-19T09:04:01;8.45;;;3.20;;
52564;SDS011;38460;53.106;7.004;2023-09-19T09:06:27;10.50;;;3.15;;
52564;SDS011;38460;53.106;7.004;2023-09-19T09:08:54;10.23;;;3.45;;
52564;SDS011;38460;53.106;7.004;2023-09-19T09:11:21;12.50;;;3.15;;
52564;SDS011;38460;53.106;7.004;2023-09-19T09:13:50;9.90;;;3.58;;
52564;SDS011;38460;53.106;7.004;2023-09-19T09:16:15;7.63;;;3.20;;
52564;SDS011;38460;53.106;7.004;2023-09-19T09:18:47;9.60;;;3.92;;
52564;SDS011;38460;53.106;7.004;2023-09-19T09:21:26;11.68;;;3.35;;
52564;SDS011;38460;53.106;7.004;2023-09-19T09:23:52;7.22;;;3.17;;
52564;SDS011;38460;53.106;7.004;2023-09-19T09:26:51;10.73;;;3.55;;
52564;SDS011;38460;53.106;7.004;2023-09-19T09:29:12;12.35;;;3.72;;
52564;SDS011;38460;53.106;7.004;2023-09-19T09:31:38;10.75;;;3.50;;
52564;SDS011;38460;53.106;7.004;2023-09-19T09:34:07;11.95;;;3.33;;
52564;SDS011;38460;53.106;7.004;2023-09-19T09:39:02;10.40;;;3.78;;
52564;SDS011;38460;53.106;7.004;2023-09-19T09:41:41;9.68;;;3.05;;
52564;SDS011;38460;53.106;7.004;2023-09-19T09:44:17;11.02;;;3.33;;
52564;SDS011;38460;53.106;7.004;2023-09-19T09:46:47;12.02;;;4.13;;
52564;SDS011;38460;53.106;7.004;2023-09-19T09:49:22;9.77;;;3.60;;
52564;SDS011;38460;53.106;7.004;2023-09-19T09:52:01;7.32;;;2.88;;
52564;SDS011;38460;53.106;7.004;2023-09-19T09:54:58;8.07;;;2.95;;
52564;SDS011;38460;53.106;7.004;2023-09-19T09:57:33;9.82;;;2.83;;
52564;SDS011;38460;53.106;7.004;2023-09-19T09:59:59;12.30;;;3.55;;
52564;SDS011;38460;53.106;7.004;2023-09-19T10:02:37;7.75;;;2.50;;
52564;SDS011;38460;53.106;7.004;2023-09-19T10:05:12;11.77;;;2.97;;
52564;SDS011;38460;53.106;7.004;2023-09-19T10:07:45;8.25;;;2.83;;
52564;SDS011;38460;53.106;7.004;2023-09-19T10:10:37;5.28;;;2.88;;
52564;SDS011;38460;53.106;7.004;2023-09-19T10:13:06;9.75;;;3.00;;
52564;SDS011;38460;53.106;7.004;2023-09-19T10:15:39;11.25;;;2.92;;
52564;SDS011;38460;53.106;7.004;2023-09-19T10:18:16;8.45;;;2.63;;
52564;SDS011;38460;53.106;7.004;2023-09-19T10:20:46;8.77;;;2.40;;
52564;SDS011;38460;53.106;7.004;2023-09-19T10:23:13;7.45;;;2.60;;
52564;SDS011;38460;53.106;7.004;2023-09-19T10:25:47;5.97;;;2.47;;
52564;SDS011;38460;53.106;7.004;2023-09-19T10:28:15;9.45;;;2.90;;
52564;SDS011;38460;53.106;7.004;2023-09-19T10:30:47;8.25;;;2.80;;
52564;SDS011;38460;53.106;7.004;2023-09-19T10:33:18;10.50;;;3.42;;
52564;SDS011;38460;53.106;7.004;2023-09-19T10:35:47;9.60;;;2.90;;
52564;SDS011;38460;53.106;7.004;2023-09-19T10:38:19;7.55;;;2.35;;
52564;SDS011;38460;53.106;7.004;2023-09-19T10:40:49;9.15;;;2.60;;
52564;SDS011;38460;53.106;7.004;2023-09-19T10:43:17;7.05;;;2.47;;
52564;SDS011;38460;53.106;7.004;2023-09-19T10:45:47;6.85;;;2.42;;
52564;SDS011;38460;53.106;7.004;2023-09-19T10:48:17;9.02;;;3.13;;
52564;SDS011;38460;53.106;7.004;2023-09-19T10:50:52;9.32;;;2.72;;
52564;SDS011;38460;53.106;7.004;2023-09-19T10:53:48;7.88;;;2.60;;
52564;SDS011;38460;53.106;7.004;2023-09-19T10:56:30;8.10;;;2.58;;
52564;SDS011;38460;53.106;7.004;2023-09-19T10:59:13;10.07;;;3.33;;
52564;SDS011;38460;53.106;7.004;2023-09-19T11:01:42;9.88;;;2.70;;
52564;SDS011;38460;53.106;7.004;2023-09-19T11:07:02;11.20;;;2.88;;
52564;SDS011;38460;53.106;7.004;2023-09-19T11:15:06;7.22;;;2.40;;
52564;SDS011;38460;53.106;7.004;2023-09-19T11:17:37;9.30;;;3.50;;
52564;SDS011;38460;53.106;7.004;2023-09-19T11:30:31;7.80;;;2.78;;
52564;SDS011;38460;53.106;7.004;2023-09-19T11:33:17;6.80;;;2.67;;
52564;SDS011;38460;53.106;7.004;2023-09-19T11:43:47;10.75;;;3.30;;
52564;SDS011;38460;53.106;7.004;2023-09-19T11:46:15;9.75;;;3.35;;
52564;SDS011;38460;53.106;7.004;2023-09-19T11:48:47;11.63;;;2.80;;
52564;SDS011;38460;53.106;7.004;2023-09-19T11:51:15;7.90;;;2.83;;
52564;SDS011;38460;53.106;7.004;2023-09-19T11:53:47;9.27;;;2.60;;
52564;SDS011;38460;53.106;7.004;2023-09-19T11:56:17;5.88;;;2.47;;
52564;SDS011;38460;53.106;7.004;2023-09-19T11:58:45;6.13;;;2.22;;
52564;SDS011;38460;53.106;7.004;2023-09-19T12:01:14;11.02;;;2.72;;
52564;SDS011;38460;53.106;7.004;2023-09-19T12:03:46;5.25;;;2.17;;
52564;SDS011;38460;53.106;7.004;2023-09-19T12:06:15;7.90;;;2.65;;
52564;SDS011;38460;53.106;7.004;2023-09-19T12:08:42;8.98;;;2.50;;
52564;SDS011;38460;53.106;7.004;2023-09-19T12:11:15;9.25;;;2.50;;
52564;SDS011;38460;53.106;7.004;2023-09-19T12:13:43;7.93;;;3.20;;
52564;SDS011;38460;53.106;7.004;2023-09-19T12:16:13;8.05;;;2.80;;
52564;SDS011;38460;53.106;7.004;2023-09-19T12:18:40;8.82;;;2.38;;
52564;SDS011;38460;53.106;7.004;2023-09-19T12:21:08;8.35;;;2.78;;
52564;SDS011;38460;53.106;7.004;2023-09-19T12:24:03;8.80;;;2.70;;
52564;SDS011;38460;53.106;7.004;2023-09-19T12:26:47;8.93;;;2.33;;
52564;SDS011;38460;53.106;7.004;2023-09-19T12:29:14;8.90;;;2.70;;
52564;SDS011;38460;53.106;7.004;2023-09-19T12:31:48;8.23;;;2.83;;
52564;SDS011;38460;53.106;7.004;2023-09-19T12:34:22;7.93;;;3.03;;
52564;SDS011;38460;53.106;7.004;2023-09-19T12:39:39;7.88;;;2.75;;
52564;SDS011;38460;53.106;7.004;2023-09-19T12:42:07;8.35;;;2.90;;
52564;SDS011;38460;53.106;7.004;2023-09-19T12:44:42;7.13;;;2.28;;
52564;SDS011;38460;53.106;7.004;2023-09-19T12:47:10;8.87;;;2.53;;
52564;SDS011;38460;53.106;7.004;2023-09-19T12:50:04;6.82;;;2.47;;
52564;SDS011;38460;53.106;7.004;2023-09-19T12:52:40;10.45;;;2.72;;
52564;SDS011;38460;53.106;7.004;2023-09-19T12:55:07;8.05;;;2.38;;
52564;SDS011;38460;53.106;7.004;2023-09-19T12:57:34;6.72;;;2.22;;
52564;SDS011;38460;53.106;7.004;2023-09-19T13:00:04;16.75;;;3.38;;
52564;SDS011;38460;53.106;7.004;2023-09-19T13:02:36;6.88;;;2.22;;
52564;SDS011;38460;53.106;7.004;2023-09-19T13:05:03;7.40;;;2.08;;
52564;SDS011;38460;53.106;7.004;2023-09-19T13:07:44;7.57;;;3.05;;
52564;SDS011;38460;53.106;7.004;2023-09-19T13:10:14;8.77;;;2.50;;
52564;SDS011;38460;53.106;7.004;2023-09-19T13:12:41;5.90;;;2.10;;
52564;SDS011;38460;53.106;7.004;2023-09-19T13:15:12;8.00;;;2.72;;
52564;SDS011;38460;53.106;7.004;2023-09-19T13:17:47;4.93;;;2.25;;
52564;SDS011;38460;53.106;7.004;2023-09-19T13:20:23;8.35;;;2.10;;
52564;SDS011;38460;53.106;7.004;2023-09-19T13:22:52;8.43;;;2.08;;
52564;SDS011;38460;53.106;7.004;2023-09-19T13:25:20;7.15;;;2.00;;
52564;SDS011;38460;53.106;7.004;2023-09-19T13:30:16;7.50;;;2.38;;
52564;SDS011;38460;53.106;7.004;2023-09-19T13:32:42;7.30;;;2.00;;
52564;SDS011;38460;53.106;7.004;2023-09-19T13:35:09;7.95;;;2.53;;
52564;SDS011;38460;53.106;7.004;2023-09-19T13:37:35;6.63;;;2.47;;
52564;SDS011;38460;53.106;7.004;2023-09-19T13:40:07;7.07;;;2.40;;
52564;SDS011;38460;53.106;7.004;2023-09-19T13:42:33;5.68;;;2.03;;
52564;SDS011;38460;53.106;7.004;2023-09-19T13:45:01;7.28;;;1.90;;
52564;SDS011;38460;53.106;7.004;2023-09-19T13:47:29;8.32;;;2.58;;
52564;SDS011;38460;53.106;7.004;2023-09-19T13:49:58;6.07;;;2.47;;
52564;SDS011;38460;53.106;7.004;2023-09-19T13:52:25;7.15;;;2.95;;
52564;SDS011;38460;53.106;7.004;2023-09-19T13:54:53;6.97;;;2.22;;
52564;SDS011;38460;53.106;7.004;2023-09-19T13:57:22;8.43;;;2.05;;
52564;SDS011;38460;53.106;7.004;2023-09-19T13:59:48;8.70;;;2.80;;
52564;SDS011;38460;53.106;7.004;2023-09-19T14:02:14;7.07;;;2.47;;
52564;SDS011;38460;53.106;7.004;2023-09-19T14:04:40;5.90;;;2.10;;
52564;SDS011;38460;53.106;7.004;2023-09-19T14:07:06;9.18;;;2.17;;
52564;SDS011;38460;53.106;7.004;2023-09-19T14:09:32;8.75;;;2.20;;
52564;SDS011;38460;53.106;7.004;2023-09-19T14:11:59;5.90;;;1.90;;
52564;SDS011;38460;53.106;7.004;2023-09-19T14:14:24;9.52;;;3.00;;
52564;SDS011;38460;53.106;7.004;2023-09-19T14:16:50;8.57;;;2.13;;
52564;SDS011;38460;53.106;7.004;2023-09-19T14:19:20;8.68;;;1.70;;
52564;SDS011;38460;53.106;7.004;2023-09-19T14:21:46;7.47;;;2.50;;
52564;SDS011;38460;53.106;7.004;2023-09-19T14:24:16;8.82;;;2.10;;
52564;SDS011;38460;53.106;7.004;2023-09-19T14:26:45;5.45;;;1.95;;
52564;SDS011;38460;53.106;7.004;2023-09-19T14:29:11;6.47;;;2.22;;
52564;SDS011;38460;53.106;7.004;2023-09-19T14:31:37;7.53;;;2.08;;
52564;SDS011;38460;53.106;7.004;2023-09-19T14:34:05;5.10;;;1.75;;
52564;SDS011;38460;53.106;7.004;2023-09-19T14:36:31;7.50;;;2.58;;
52564;SDS011;38460;53.106;7.004;2023-09-19T14:38:58;6.30;;;1.73;;
52564;SDS011;38460;53.106;7.004;2023-09-19T14:41:24;8.13;;;1.80;;
52564;SDS011;38460;53.106;7.004;2023-09-19T14:43:51;6.05;;;1.98;;
52564;SDS011;38460;53.106;7.004;2023-09-19T14:46:17;7.68;;;1.63;;
52564;SDS011;38460;53.106;7.004;2023-09-19T14:48:44;5.10;;;1.67;;
52564;SDS011;38460;53.106;7.004;2023-09-19T14:51:13;7.18;;;1.90;;
52564;SDS011;38460;53.106;7.004;2023-09-19T14:53:39;9.68;;;1.88;;
52564;SDS011;38460;53.106;7.004;2023-09-19T14:56:09;5.20;;;1.90;;
52564;SDS011;38460;53.106;7.004;2023-09-19T14:58:36;3.60;;;1.45;;
52564;SDS011;38460;53.106;7.004;2023-09-19T15:01:07;10.15;;;1.85;;
52564;SDS011;38460;53.106;7.004;2023-09-19T15:03:38;5.75;;;2.05;;
52564;SDS011;38460;53.106;7.004;2023-09-19T15:06:06;4.78;;;1.70;;
52564;SDS011;38460;53.106;7.004;2023-09-19T15:08:44;6.10;;;1.70;;
52564;SDS011;38460;53.106;7.004;2023-09-19T15:11:12;6.88;;;1.88;;
52564;SDS011;38460;53.106;7.004;2023-09-19T15:13:41;5.70;;;1.50;;
52564;SDS011;38460;53.106;7.004;2023-09-19T15:16:08;8.73;;;1.58;;
52564;SDS011;38460;53.106;7.004;2023-09-19T15:18:35;3.00;;;1.30;;
52564;SDS011;38460;53.106;7.004;2023-09-19T15:21:07;7.05;;;1.58;;
52564;SDS011;38460;53.106;7.004;2023-09-19T15:23:34;5.88;;;1.60;;
52564;SDS011;38460;53.106;7.004;2023-09-19T15:26:01;3.55;;;1.48;;
52564;SDS011;38460;53.106;7.004;2023-09-19T15:28:34;4.57;;;1.67;;
52564;SDS011;38460;53.106;7.004;2023-09-19T15:31:01;4.32;;;1.70;;
52564;SDS011;38460;53.106;7.004;2023-09-19T15:33:29;7.07;;;2.15;;
52564;SDS011;38460;53.106;7.004;2023-09-19T15:36:09;7.97;;;1.70;;
52564;SDS011;38460;53.106;7.004;2023-09-19T15:41:24;4.35;;;1.67;;
52564;SDS011;38460;53.106;7.004;2023-09-19T15:43:52;5.03;;;1.52;;
52564;SDS011;38460;53.106;7.004;2023-09-19T15:46:19;5.10;;;2.33;;
52564;SDS011;38460;53.106;7.004;2023-09-19T15:48:45;4.45;;;1.50;;
52564;SDS011;38460;53.106;7.004;2023-09-19T15:51:11;2.85;;;1.30;;
52564;SDS011;38460;53.106;7.004;2023-09-19T15:53:41;3.15;;;1.45;;
52564;SDS011;38460;53.106;7.004;2023-09-19T15:56:13;5.35;;;1.45;;